createdAt,value
2023-05-21T00:04:25.534Z,54.78
2023-05-21T00:09:28.348Z,56.62
2023-05-21T00:14:31.217Z,57.81
2023-05-21T00:19:34.014Z,58.77
2023-05-21T00:24:36.700Z,59.78
2023-05-21T00:29:40.953Z,60.58
2023-05-21T00:34:45.121Z,69.56
2023-05-21T00:39:47.897Z,63.72
2023-05-21T00:44:50.702Z,54.40
2023-05-21T00:49:53.491Z,54.21
2023-05-21T00:54:56.377Z,55.48
2023-05-21T00:59:59.140Z,57.02
2023-05-21T01:05:01.922Z,58.60
2023-05-21T01:10:07.718Z,59.44
2023-05-21T01:15:11.605Z,60.94
2023-05-21T01:20:18.138Z,69.98
2023-05-21T01:25:21.937Z,65.32
2023-05-21T01:30:25.691Z,55.68
2023-05-21T01:35:33.894Z,53.80
2023-05-21T01:41:03.818Z,56.37
2023-05-21T01:46:09.689Z,58.14
2023-05-21T01:51:13.813Z,59.58
2023-05-21T01:56:16.533Z,68.23
2023-05-21T02:01:20.435Z,63.97
2023-05-21T02:06:23.254Z,54.83
2023-05-21T02:11:26.892Z,54.34
2023-05-21T02:16:29.789Z,55.70
2023-05-21T02:21:32.856Z,58.17
2023-05-21T02:26:37.520Z,59.17
2023-05-21T02:31:40.236Z,61.25
2023-05-21T02:36:42.962Z,70.07
2023-05-21T02:41:47.116Z,65.53
2023-05-21T02:46:49.875Z,56.12
2023-05-21T02:51:52.699Z,55.23
2023-05-21T02:56:55.823Z,55.93
2023-05-21T03:01:58.629Z,57.85
2023-05-21T03:07:04.559Z,59.71
2023-05-21T03:12:08.112Z,68.70
2023-05-21T03:17:15.032Z,64.90
2023-05-21T03:22:17.758Z,55.72
2023-05-21T03:27:20.557Z,54.61
2023-05-21T03:32:24.150Z,55.71
2023-05-21T03:37:27.021Z,57.40
2023-05-21T03:42:29.793Z,59.91
2023-05-21T03:47:32.606Z,68.14
2023-05-21T03:52:35.426Z,63.92
2023-05-21T03:57:38.300Z,55.00
2023-05-21T04:02:41.177Z,54.94
2023-05-21T04:07:46.479Z,56.15
2023-05-21T04:12:52.539Z,57.31
2023-05-21T04:17:55.580Z,58.28
2023-05-21T04:22:58.601Z,59.68
2023-05-21T04:28:01.373Z,68.20
2023-05-21T04:33:04.198Z,61.02
2023-05-21T04:38:06.928Z,53.34
2023-05-21T04:43:11.528Z,54.04
2023-05-21T04:48:15.876Z,55.13
2023-05-21T04:53:18.685Z,55.87
2023-05-21T04:58:21.508Z,57.38
2023-05-21T05:03:24.282Z,58.31
2023-05-21T05:08:27.099Z,59.00
2023-05-21T05:13:29.858Z,60.64
2023-05-21T05:18:34.153Z,60.49
2023-05-21T05:23:38.153Z,60.25
2023-05-21T05:28:40.931Z,60.35
2023-05-21T05:33:43.898Z,61.02
2023-05-21T05:38:46.659Z,61.17
2023-05-21T05:43:49.453Z,60.86
2023-05-21T05:48:52.202Z,61.06
2023-05-21T05:53:54.911Z,59.57
2023-05-21T05:58:59.314Z,59.71
2023-05-21T06:04:02.081Z,59.44
2023-05-21T06:09:04.966Z,58.98
2023-05-21T06:14:07.693Z,58.64
2023-05-21T06:19:10.463Z,57.21
2023-05-21T06:24:13.248Z,57.13
2023-05-21T06:29:17.604Z,56.40
2023-05-21T06:34:20.384Z,55.88
2023-05-21T06:39:24.669Z,54.29
2023-05-21T06:44:27.414Z,53.95
2023-05-21T06:49:32.171Z,52.52
2023-05-21T06:54:35.009Z,52.05
2023-05-21T06:59:38.247Z,51.70
2023-05-21T07:04:41.057Z,50.27
2023-05-21T07:09:43.811Z,49.91
2023-05-21T07:14:46.592Z,48.78
2023-05-21T07:19:49.317Z,47.90
2023-05-21T07:24:52.016Z,46.64
2023-05-21T07:29:54.796Z,45.07
2023-05-21T07:35:02.369Z,45.58
2023-05-21T07:40:06.490Z,44.67
2023-05-21T07:45:09.622Z,44.60
2023-05-21T07:50:14.692Z,43.94
2023-05-21T07:55:17.462Z,43.31
2023-05-21T08:00:24.003Z,42.40
2023-05-21T08:05:26.772Z,41.04
2023-05-21T08:10:31.304Z,39.46
2023-05-21T08:15:34.302Z,39.12
2023-05-21T08:20:37.224Z,38.93
2023-05-21T08:25:40.048Z,38.60
2023-05-21T08:30:42.749Z,37.50
2023-05-21T08:35:45.570Z,37.33
2023-05-21T08:40:51.516Z,36.64
2023-05-21T08:45:55.905Z,36.08
2023-05-21T08:51:00.200Z,35.90
2023-05-21T08:56:09.424Z,35.76
2023-05-21T09:01:19.545Z,35.41
2023-05-21T09:06:23.465Z,34.69
2023-05-21T09:11:26.961Z,33.93
2023-05-21T09:16:29.797Z,33.64
2023-05-21T09:21:33.406Z,33.41
2023-05-21T09:26:36.419Z,32.61
2023-05-21T09:31:45.033Z,32.08
2023-05-21T09:36:49.379Z,32.04
2023-05-21T09:41:52.238Z,32.29
2023-05-21T09:47:01.466Z,31.65
2023-05-21T09:52:04.475Z,30.60
2023-05-21T09:57:07.283Z,30.66
2023-05-21T10:02:37.921Z,29.82
2023-05-21T10:07:50.448Z,28.91
2023-05-21T10:13:04.572Z,29.45
2023-05-21T10:18:10.170Z,29.19
2023-05-21T10:23:13.228Z,28.65
2023-05-21T10:28:18.258Z,28.16
2023-05-21T10:33:27.105Z,27.53
2023-05-21T10:38:32.109Z,27.78
2023-05-21T10:43:46.716Z,27.23
2023-05-21T10:49:17.395Z,27.22
2023-05-21T10:54:49.415Z,27.02
2023-05-21T10:59:54.311Z,26.76
2023-05-21T11:05:01.843Z,26.83
2023-05-21T11:10:29.820Z,26.79
2023-05-21T11:16:08.066Z,26.08
2023-05-21T11:21:16.011Z,26.08
2023-05-21T11:26:23.339Z,25.70
2023-05-21T11:31:27.475Z,25.42
2023-05-21T11:36:30.416Z,25.66
2023-05-21T11:41:53.353Z,25.90
2023-05-21T11:46:57.935Z,25.95
2023-05-21T11:52:01.768Z,25.51
2023-05-21T11:57:10.014Z,25.21
2023-05-21T12:02:17.879Z,24.82
2023-05-21T12:07:21.993Z,25.04
2023-05-21T12:12:30.779Z,24.75
2023-05-21T12:17:39.304Z,24.23
2023-05-21T12:22:43.564Z,24.39
2023-05-21T12:27:48.354Z,23.92
2023-05-21T12:32:51.233Z,23.91
2023-05-21T12:37:54.164Z,23.27
2023-05-21T12:42:57.462Z,23.46
2023-05-21T12:48:03.561Z,23.72
2023-05-21T12:53:11.317Z,23.41
2023-05-21T12:58:14.365Z,23.28
2023-05-21T13:03:17.221Z,23.17
2023-05-21T13:08:20.037Z,22.73
2023-05-21T13:13:22.774Z,22.84
2023-05-21T13:18:25.662Z,22.82
2023-05-21T13:23:28.551Z,21.98
2023-05-21T13:28:31.676Z,22.33
2023-05-21T13:33:34.601Z,22.58
2023-05-21T13:38:37.769Z,22.70
2023-05-21T13:43:44.055Z,22.90
2023-05-21T13:48:46.850Z,22.66
2023-05-21T13:53:49.582Z,22.98
2023-05-21T13:58:52.347Z,22.83
2023-05-21T14:03:55.345Z,22.89
2023-05-21T14:08:59.581Z,22.92
2023-05-21T14:14:03.212Z,22.51
2023-05-21T14:19:06.321Z,22.45
2023-05-21T14:24:09.668Z,22.35
2023-05-21T14:29:12.633Z,22.45
2023-05-21T14:34:15.387Z,22.57
2023-05-21T14:39:18.172Z,22.36
2023-05-21T14:44:21.030Z,22.42
2023-05-21T14:49:23.790Z,21.84
2023-05-21T14:54:26.528Z,21.50
2023-05-21T14:59:29.262Z,21.57
2023-05-21T15:04:32.214Z,21.67
2023-05-21T15:09:35.055Z,21.82
2023-05-21T15:14:37.912Z,21.70
2023-05-21T15:19:40.881Z,21.22
2023-05-21T15:24:45.102Z,21.34
2023-05-21T15:29:47.956Z,21.31
2023-05-21T15:34:51.769Z,21.57
2023-05-21T15:39:54.752Z,21.38
2023-05-21T15:44:57.610Z,21.25
2023-05-21T15:50:00.597Z,21.27
2023-05-21T15:55:04.539Z,21.43
2023-05-21T16:00:08.250Z,21.51
2023-05-21T16:05:11.060Z,21.42
2023-05-21T16:10:13.849Z,21.62
2023-05-21T16:15:17.331Z,21.70
2023-05-21T16:20:21.865Z,21.32
2023-05-21T16:25:24.600Z,21.49
2023-05-21T16:30:27.350Z,21.54
2023-05-21T16:35:31.701Z,21.31
2023-05-21T16:40:34.510Z,21.60
2023-05-21T16:45:42.698Z,21.94
2023-05-21T16:50:47.182Z,22.32
2023-05-21T16:55:50.600Z,22.85
2023-05-21T17:00:53.503Z,23.52
2023-05-21T17:05:56.279Z,24.17
2023-05-21T17:10:59.117Z,24.49
2023-05-21T17:16:01.929Z,24.69
2023-05-21T17:21:05.019Z,25.02
2023-05-21T17:26:09.674Z,25.48
2023-05-21T17:31:12.573Z,25.68
2023-05-21T17:36:16.346Z,26.10
2023-05-21T17:41:19.382Z,26.49
2023-05-21T17:46:22.358Z,26.67
2023-05-21T17:51:25.319Z,26.93
2023-05-21T17:56:34.388Z,27.23
2023-05-21T18:01:39.629Z,27.23
2023-05-21T18:06:43.110Z,27.84
2023-05-21T18:11:46.362Z,28.16
2023-05-21T18:16:49.091Z,28.53
2023-05-21T18:21:51.824Z,28.84
2023-05-21T18:26:54.762Z,29.15
2023-05-21T18:31:57.608Z,29.51
2023-05-21T18:37:00.500Z,29.80
2023-05-21T18:42:13.054Z,30.13
2023-05-21T18:47:17.361Z,30.33
2023-05-21T18:52:20.158Z,30.65
2023-05-21T18:57:22.938Z,31.01
2023-05-21T19:02:27.060Z,31.33
2023-05-21T19:07:29.917Z,31.71
2023-05-21T19:12:34.077Z,31.89
2023-05-21T19:17:39.074Z,32.37
2023-05-21T19:22:42.412Z,32.94
2023-05-21T19:27:45.168Z,33.32
2023-05-21T19:32:48.165Z,33.67
2023-05-21T19:37:51.002Z,33.92
2023-05-21T19:42:53.732Z,34.29
2023-05-21T19:47:57.232Z,34.48
2023-05-21T19:53:00.117Z,34.88
2023-05-21T19:58:03.767Z,35.33
2023-05-21T20:03:07.129Z,35.71
2023-05-21T20:08:09.952Z,35.96
2023-05-21T20:13:12.664Z,36.31
2023-05-21T20:18:15.666Z,36.68
2023-05-21T20:23:18.688Z,37.11
2023-05-21T20:28:23.225Z,37.41
2023-05-21T20:33:32.173Z,37.57
2023-05-21T20:38:37.223Z,37.84
2023-05-21T20:43:40.032Z,38.24
2023-05-21T20:48:43.717Z,38.47
2023-05-21T20:53:50.021Z,38.82
2023-05-21T20:58:52.766Z,38.95
2023-05-21T21:03:55.800Z,39.18
2023-05-21T21:08:58.778Z,39.50
2023-05-21T21:14:02.708Z,39.94
2023-05-21T21:19:05.573Z,39.97
2023-05-21T21:24:08.596Z,40.49
2023-05-21T21:29:11.380Z,40.48
2023-05-21T21:34:14.457Z,40.68
2023-05-21T21:39:18.281Z,40.83
2023-05-21T21:44:21.048Z,41.01
2023-05-21T21:49:23.796Z,41.27
2023-05-21T21:54:27.817Z,41.67
2023-05-21T21:59:31.725Z,41.77
2023-05-21T22:04:34.557Z,42.44
2023-05-21T22:09:37.334Z,42.75
2023-05-21T22:14:40.185Z,43.37
2023-05-21T22:19:43.051Z,43.35
2023-05-21T22:24:45.914Z,44.00
2023-05-21T22:29:48.630Z,44.29
2023-05-21T22:34:51.370Z,44.78
2023-05-21T22:39:54.138Z,45.20
2023-05-21T22:44:56.927Z,45.60
2023-05-21T22:50:00.721Z,46.29
2023-05-21T22:55:06.089Z,46.54
2023-05-21T23:00:11.215Z,46.96
2023-05-21T23:12:12.536Z,47.33
2023-05-21T23:17:15.345Z,48.24
2023-05-21T23:22:19.529Z,48.75
2023-05-21T23:27:23.977Z,49.13
2023-05-21T23:32:27.418Z,49.70
2023-05-21T23:37:30.409Z,49.61
2023-05-21T23:42:33.216Z,50.01
2023-05-21T23:47:35.997Z,50.38
2023-05-21T23:52:38.852Z,50.78
2023-05-21T23:57:41.631Z,50.62
